Nipawin Airport
CYBU : now visible

Airfield :











YOU CAN JOIN US ON...

 
LOGIN :

Register | Disclaimer

   EN    FR    IT 

 









Legend :    VFR   Marginal VFR   IFR   Intensive IFR   Very Intensive IFR
Visi :
Ceiling :
>= 8 km
>= 3000ft
5 to 8 km
1000 to 3000 ft
1500m to 5 km
500 to 1000 ft
800 to 1500m
200 to 500 ft
< 800m
< 200 ft
Symbols :   Thunderstorms  Fog  Heavy snow  Heavy precipitations  Wind > 20 kt






- Airport Elevation : 1220 ft


CYBU - Nipawin

CURRENT METAR :
  • 050745Z AUTO 01010KT 9SM OVC016 M16/M18 A2997 RMK ICE SLP187

EXPIRED METARs :
  • 050727Z AUTO 01011KT 9SM -SN OVC016 M16/M18 A2996 RMK ICE SLP186
  • 050708Z AUTO 01011KT 9SM -SN OVC016 M16/M18 A2996 RMK ICE SLP184
  • 050649Z AUTO 01011KT 9SM -SN OVC016 M15/M18 A2996 RMK ICE SLP184
  • 050633Z AUTO 02013KT 9SM -SN OVC016 M15/M18 A2996 RMK ICE INTMT SLP182
  • 050621Z AUTO 02010G16KT 9SM OVC016 M15/M17 A2996 RMK ICE INTMT SLP183
  • 050611Z AUTO 01012G17KT 9SM -SN OVC016 M15/M17 A2996 RMK ICE SLP183
  • 050552Z AUTO 01013KT 9SM -SN OVC016 M15/M17 A2996 RMK ICE SLP182
  • 050533Z AUTO 02013KT 9SM -SN OVC016 M15/M16 A2996 RMK ICE SLP184
  • 050512Z AUTO 02010G15KT 9SM OVC014 M15/M16 A2997 RMK ICE PAST HR SLP186

TAF N/A
CZWG FIR / North America



MET'MAP, your aeronautical weather chart ! - Copyright ORBIFLY December 2007 - Disclaimer

ORBIFLY MET'MAP TEAM :

Programming & Development : Alexandra Zaïnal
Concept & original design : Baudouin d'Aumeries
Assistance for programming : Marc-Olivier Méhu
Technical & hardware support : Manuel Goepfert

Contact : metmap@orbifly.com




SOURCES & CREDITS :

   NOAA       Earth
Advisory